Time;durP1;ratioP1;P1;durP2;ratioP2;P2;SDS_P1;SDS_P2;PMS_P1;PMS_P2;Temp;Humidity;BMP_temperature;BMP_pressure;BME280_temperature;BME280_humidity;BME280_pressure;Samples;Min_cycle;Max_cycle;Signal;HPM_P1;HPM_P2
2021/09/28 00:00:34;;;;;;;1.50;1.40;;;22.50;66.40;;;;;;5123816;28;20043;-36
2021/09/28 00:03:00;;;;;;;;;;;22.50;66.30;;;;;;5123996;28;20181;-36
2021/09/28 00:05:27;;;;;;;1.50;1.30;;;22.50;66.20;;;;;;5123687;28;19907;-37
2021/09/28 00:07:53;;;;;;;1.67;1.40;;;22.50;66.20;;;;;;5123453;28;20606;-36
2021/09/28 00:10:19;;;;;;;1.50;1.40;;;22.50;66.20;;;;;;5123289;28;20032;-37
2021/09/28 00:12:45;;;;;;;1.63;1.50;;;22.50;66.10;;;;;;5123267;28;20039;-36
2021/09/28 00:15:13;;;;;;;1.75;1.65;;;22.50;66.20;;;;;;5123732;28;20028;-36
2021/09/28 00:17:38;;;;;;;;;;;22.50;66.40;;;;;;5123326;28;20035;-36
2021/09/28 00:20:05;;;;;;;1.48;1.38;;;22.50;66.30;;;;;;5123419;28;19983;-36
2021/09/28 00:22:31;;;;;;;1.60;1.50;;;22.50;66.70;;;;;;5115802;28;20682;-36
2021/09/28 00:24:57;;;;;;;1.73;1.63;;;22.60;67.00;;;;;;5102850;28;20092;-36
2021/09/28 00:27:23;;;;;;;1.60;1.50;;;22.60;67.20;;;;;;5102632;28;20054;-36
2021/09/28 00:29:50;;;;;;;1.70;1.60;;;22.60;67.30;;;;;;5103005;28;20020;-36
2021/09/28 00:32:16;;;;;;;1.50;1.40;;;22.60;67.40;;;;;;5123124;28;20032;-36
2021/09/28 00:34:42;;;;;;;3.00;1.60;;;22.60;67.50;;;;;;5123161;28;20361;-36
2021/09/28 00:37:09;;;;;;;1.45;1.35;;;22.60;67.60;;;;;;5122835;28;20057;-37
2021/09/28 00:39:35;;;;;;;1.70;1.50;;;22.60;67.70;;;;;;5123120;28;20031;-36
2021/09/28 00:42:01;;;;;;;1.67;1.58;;;22.60;67.80;;;;;;5123100;28;20131;-36
2021/09/28 00:44:40;;;;;;;1.70;1.60;;;22.60;67.70;;;;;;5123071;28;20027;-36
2021/09/28 00:47:07;;;;;;;1.60;1.50;;;22.60;67.80;;;;;;5104488;28;20782;-36
2021/09/28 00:49:33;;;;;;;;;;;22.60;67.50;;;;;;5123359;28;20031;-36
2021/09/28 00:51:59;;;;;;;1.73;1.63;;;22.60;67.30;;;;;;5122650;28;19929;-37
2021/09/28 00:54:25;;;;;;;1.70;1.60;;;22.60;67.30;;;;;;5123196;28;20026;-36
2021/09/28 00:56:52;;;;;;;1.77;1.67;;;22.60;67.30;;;;;;5104662;28;20028;-36
2021/09/28 00:59:19;;;;;;;1.75;1.65;;;22.60;67.30;;;;;;5104289;28;20102;-36
2021/09/28 01:01:45;;;;;;;2.33;1.80;;;22.60;67.40;;;;;;5104241;28;20065;-36
2021/09/28 01:04:16;;;;;;;1.70;1.60;;;22.60;67.80;;;;;;5104690;28;20027;-37
2021/09/28 01:06:45;;;;;;;1.90;1.70;;;22.60;68.10;;;;;;5123038;28;20043;-36
2021/09/28 01:09:14;;;;;;;1.88;1.77;;;22.60;68.20;;;;;;5122469;28;20024;-36
2021/09/28 01:11:40;;;;;;;2.00;1.80;;;22.60;68.40;;;;;;5122684;28;20036;-37
2021/09/28 01:14:07;;;;;;;1.70;1.60;;;22.60;68.50;;;;;;5122626;28;20034;-36
2021/09/28 01:16:34;;;;;;;;;;;22.60;68.70;;;;;;5123175;28;20035;-37
2021/09/28 01:19:00;;;;;;;2.38;2.15;;;22.60;68.90;;;;;;5121768;28;19914;-36
2021/09/28 01:21:26;;;;;;;2.10;1.98;;;22.60;68.80;;;;;;5114406;28;20047;-37
2021/09/28 01:23:52;;;;;;;2.28;2.08;;;22.60;68.80;;;;;;5102266;28;20028;-36
2021/09/28 01:26:23;;;;;;;3.17;1.92;;;22.60;68.80;;;;;;5102183;28;20096;-36
2021/09/28 01:28:50;;;;;;;2.20;1.85;;;22.60;68.80;;;;;;5102832;28;20090;-37
2021/09/28 01:31:16;;;;;;;1.88;1.70;;;22.60;68.80;;;;;;5122194;28;20024;-37
2021/09/28 01:33:42;;;;;;;3.47;2.13;;;22.60;69.00;;;;;;5122835;28;20043;-36
2021/09/28 01:36:08;;;;;;;1.92;1.80;;;22.60;68.80;;;;;;5122629;28;20027;-36
2021/09/28 01:38:35;;;;;;;1.85;1.75;;;22.60;68.80;;;;;;5121503;28;20020;-37
2021/09/28 01:41:01;;;;;;;3.15;2.00;;;22.60;68.80;;;;;;5123903;28;20035;-36
2021/09/28 01:43:27;;;;;;;2.05;1.92;;;22.60;68.70;;;;;;5105862;28;20036;-37
2021/09/28 01:46:01;;;;;;;2.00;1.90;;;22.60;68.70;;;;;;5106041;28;20115;-37
2021/09/28 01:48:52;;;;;;;1.77;1.67;;;22.60;68.80;;;;;;5105757;28;20036;-37
2021/09/28 01:51:18;;;;;;;2.03;1.90;;;22.50;68.80;;;;;;5087742;28;20102;-37
2021/09/28 01:53:44;;;;;;;2.40;2.20;;;22.50;68.60;;;;;;5105509;28;20052;-36
2021/09/28 01:56:20;;;;;;;2.35;2.15;;;22.50;68.70;;;;;;5105885;28;20035;-37
2021/09/28 01:58:47;;;;;;;2.30;2.10;;;22.50;68.70;;;;;;5087316;28;20471;-37
2021/09/28 02:01:13;;;;;;;2.17;1.98;;;22.50;68.60;;;;;;5105576;28;20467;-36
2021/09/28 02:03:39;;;;;;;2.10;1.90;;;22.50;68.50;;;;;;5105702;28;20070;-36
2021/09/28 02:06:06;;;;;;;2.20;2.00;;;22.50;68.50;;;;;;5105558;28;20024;-36
2021/09/28 02:08:32;;;;;;;2.40;2.20;;;22.50;68.40;;;;;;5113964;28;20054;-37
2021/09/28 02:10:58;;;;;;;1.80;1.70;;;22.50;68.40;;;;;;5126194;28;20043;-37
2021/09/28 02:13:24;;;;;;;3.13;2.00;;;22.50;68.20;;;;;;5126074;28;20024;-36
2021/09/28 02:15:50;;;;;;;2.30;2.10;;;22.50;68.10;;;;;;5125971;28;20032;-36
2021/09/28 02:18:17;;;;;;;1.92;1.75;;;22.50;67.90;;;;;;5126033;28;20020;-36
2021/09/28 02:20:43;;;;;;;2.40;2.20;;;22.50;67.80;;;;;;5125674;28;20027;-36
2021/09/28 02:23:09;;;;;;;1.88;1.67;;;22.50;67.90;;;;;;5118170;28;20036;-37
2021/09/28 02:25:35;;;;;;;1.75;1.65;;;22.50;68.50;;;;;;5105184;28;20024;-36
2021/09/28 02:28:01;;;;;;;2.45;2.25;;;22.40;67.70;;;;;;5105281;28;20032;-37
2021/09/28 02:30:27;;;;;;;3.13;2.05;;;22.40;67.60;;;;;;5105105;28;20024;-37
2021/09/28 02:32:53;;;;;;;2.13;1.92;;;22.40;67.80;;;;;;5105404;28;20039;-37
2021/09/28 02:35:20;;;;;;;3.05;1.90;;;22.40;67.70;;;;;;5105233;28;20020;-37
2021/09/28 02:37:46;;;;;;;2.15;1.95;;;22.40;67.60;;;;;;5105285;28;20119;-36
2021/09/28 02:40:13;;;;;;;2.22;2.03;;;22.40;67.60;;;;;;5123284;28;20027;-37
2021/09/28 02:42:39;;;;;;;3.22;2.20;;;22.40;67.70;;;;;;5109510;28;20039;-37
2021/09/28 02:45:06;;;;;;;2.40;2.20;;;22.40;67.60;;;;;;5104982;28;20062;-36
2021/09/28 02:47:32;;;;;;;2.97;2.00;;;22.40;67.60;;;;;;5104979;28;20032;-37
2021/09/28 02:49:58;;;;;;;2.08;1.92;;;22.30;67.60;;;;;;5104844;28;20051;-37
2021/09/28 02:52:25;;;;;;;2.03;1.83;;;22.40;67.50;;;;;;5103975;28;20048;-36
2021/09/28 02:54:51;;;;;;;2.30;2.10;;;22.30;67.40;;;;;;5104742;28;20030;-36
2021/09/28 02:57:17;;;;;;;2.25;2.08;;;22.30;67.40;;;;;;5104971;28;20039;-36
2021/09/28 02:59:43;;;;;;;2.88;2.10;;;22.30;67.50;;;;;;5104567;28;20035;-37
2021/09/28 03:02:09;;;;;;;1.98;1.88;;;22.30;67.60;;;;;;5104759;28;20047;-37
2021/09/28 03:04:36;;;;;;;1.98;1.83;;;22.30;67.50;;;;;;5104576;28;20028;-36
2021/09/28 03:07:02;;;;;;;2.10;1.90;;;22.30;67.60;;;;;;5104544;28;20028;-37
2021/09/28 03:09:28;;;;;;;3.30;2.00;;;22.30;67.60;;;;;;5116493;28;20027;-37
2021/09/28 03:11:54;;;;;;;2.63;2.05;;;22.30;67.60;;;;;;5124734;28;20023;-36
2021/09/28 03:14:20;;;;;;;2.30;2.10;;;22.30;67.60;;;;;;5124792;28;20023;-36
2021/09/28 03:16:47;;;;;;;2.05;1.85;;;22.20;67.50;;;;;;5124873;28;20031;-36
2021/09/28 03:19:15;;;;;;;2.00;1.90;;;22.20;67.60;;;;;;5124779;28;20035;-36
2021/09/28 03:21:42;;;;;;;2.20;2.00;;;22.20;67.60;;;;;;5124634;28;20027;-37
2021/09/28 03:24:08;;;;;;;1.85;1.67;;;22.20;67.50;;;;;;5124536;28;20031;-36
2021/09/28 03:26:35;;;;;;;2.20;2.03;;;22.20;67.60;;;;;;5124937;28;20331;-36
2021/09/28 03:29:01;;;;;;;2.22;2.00;;;22.20;67.60;;;;;;5124776;28;20023;-36
2021/09/28 03:31:27;;;;;;;2.13;1.92;;;22.20;67.60;;;;;;5124237;28;20030;-36
2021/09/28 03:33:53;;;;;;;2.28;2.08;;;22.20;67.60;;;;;;5106250;28;20045;-36
2021/09/28 03:36:19;;;;;;;2.15;2.00;;;22.20;67.60;;;;;;5124595;28;20031;-37
2021/09/28 03:38:46;;;;;;;2.47;2.28;;;22.20;67.70;;;;;;5124331;28;20069;-36
2021/09/28 03:41:12;;;;;;;2.10;1.90;;;22.10;67.70;;;;;;5124143;28;20028;-36
2021/09/28 03:43:38;;;;;;;2.10;1.95;;;22.10;67.70;;;;;;5124391;28;20035;-36
2021/09/28 03:46:04;;;;;;;1.98;1.80;;;22.10;67.70;;;;;;5124409;28;20031;-36
2021/09/28 03:48:30;;;;;;;2.17;1.98;;;22.10;67.90;;;;;;5124247;28;20049;-36
2021/09/28 03:50:57;;;;;;;2.70;2.10;;;22.10;67.80;;;;;;5123878;28;20023;-37
2021/09/28 03:53:23;;;;;;;2.33;2.13;;;22.10;67.80;;;;;;5124318;28;20073;-37
2021/09/28 03:55:50;;;;;;;2.40;2.20;;;22.10;67.90;;;;;;5123878;28;20032;-36
2021/09/28 03:58:16;;;;;;;;;;;22.10;67.90;;;;;;5124618;28;20057;-36
2021/09/28 04:00:43;;;;;;;2.40;2.20;;;22.00;67.90;;;;;;5123867;28;19961;-37
2021/09/28 04:03:09;;;;;;;2.13;2.00;;;22.00;67.90;;;;;;5123040;28;20091;-37
2021/09/28 04:05:36;;;;;;;2.57;2.37;;;22.00;67.90;;;;;;5124232;28;20110;-36
2021/09/28 04:08:03;;;;;;;2.40;2.20;;;22.00;67.90;;;;;;5123677;28;20267;-36
2021/09/28 04:10:29;;;;;;;2.00;1.90;;;22.00;68.00;;;;;;5123593;28;20034;-36
2021/09/28 04:12:55;;;;;;;2.47;2.28;;;22.00;68.70;;;;;;5124038;28;20028;-36
2021/09/28 04:15:25;;;;;;;2.38;2.15;;;22.00;68.00;;;;;;5123807;28;20476;-36
2021/09/28 04:17:52;;;;;;;2.20;2.00;;;22.00;68.00;;;;;;5123103;28;20063;-36
2021/09/28 04:20:19;;;;;;;2.40;2.10;;;22.00;68.00;;;;;;5103147;28;20044;-36
2021/09/28 04:22:45;;;;;;;2.77;2.20;;;22.00;68.10;;;;;;5103320;28;20067;-36
2021/09/28 04:25:11;;;;;;;3.20;2.38;;;21.90;68.10;;;;;;5084875;28;20035;-36
2021/09/28 04:27:38;;;;;;;2.40;2.20;;;21.90;68.20;;;;;;5103291;28;20045;-37
2021/09/28 04:30:05;;;;;;;2.90;2.50;;;21.90;68.10;;;;;;5103327;28;20020;-36
2021/09/28 04:32:31;;;;;;;2.30;2.10;;;21.90;68.20;;;;;;5103373;28;20024;-36
2021/09/28 04:34:57;;;;;;;2.30;2.10;;;21.90;68.30;;;;;;5121810;28;20043;-36
2021/09/28 04:37:23;;;;;;;2.45;2.25;;;21.90;68.30;;;;;;5123388;28;20038;-36
2021/09/28 04:39:49;;;;;;;2.30;2.10;;;21.90;68.30;;;;;;5107880;28;20030;-36
2021/09/28 04:42:16;;;;;;;2.40;2.20;;;21.90;68.30;;;;;;5115289;28;20031;-36
2021/09/28 04:44:42;;;;;;;2.35;2.15;;;21.80;68.20;;;;;;5123505;28;20034;-36
2021/09/28 04:47:09;;;;;;;2.42;2.22;;;21.80;68.20;;;;;;5123215;28;20372;-36
2021/09/28 04:49:35;;;;;;;3.33;2.20;;;21.80;68.20;;;;;;5123155;28;20100;-37
2021/09/28 04:52:02;;;;;;;2.43;2.23;;;21.80;68.30;;;;;;5122978;28;20031;-37
2021/09/28 04:54:28;;;;;;;2.60;2.40;;;21.80;68.40;;;;;;5104647;28;20036;-36
2021/09/28 04:56:54;;;;;;;3.10;2.63;;;21.80;68.30;;;;;;5123174;28;20028;-37
2021/09/28 04:59:20;;;;;;;2.75;2.55;;;21.80;68.40;;;;;;5123053;28;20030;-36
2021/09/28 05:01:47;;;;;;;2.42;2.22;;;21.70;68.40;;;;;;5122739;28;20099;-37
2021/09/28 05:04:13;;;;;;;2.95;2.40;;;21.80;68.40;;;;;;5123106;28;20023;-37
2021/09/28 05:06:39;;;;;;;2.35;2.15;;;21.70;68.40;;;;;;5123014;28;20035;-36
2021/09/28 05:09:05;;;;;;;2.67;2.47;;;21.70;68.40;;;;;;5122943;28;20027;-36
2021/09/28 05:11:31;;;;;;;2.60;2.40;;;21.70;68.50;;;;;;5104177;28;20046;-36
2021/09/28 05:13:57;;;;;;;2.60;2.40;;;21.70;68.50;;;;;;5123132;28;20031;-36
2021/09/28 05:16:23;;;;;;;2.65;2.40;;;21.70;68.50;;;;;;5127364;28;20020;-37
2021/09/28 05:18:49;;;;;;;2.75;2.20;;;21.70;68.60;;;;;;5127281;28;20035;-37
2021/09/28 05:21:16;;;;;;;4.03;2.45;;;21.70;68.60;;;;;;5127039;28;20058;-36
2021/09/28 05:23:45;;;;;;;2.53;2.33;;;21.70;68.60;;;;;;5126623;28;20880;-36
2021/09/28 05:26:14;;;;;;;2.67;2.47;;;21.70;68.60;;;;;;5126916;28;20027;-37
2021/09/28 05:28:41;;;;;;;2.33;2.13;;;21.60;68.60;;;;;;5127128;28;20024;-36
2021/09/28 05:31:07;;;;;;;2.50;2.30;;;21.60;68.70;;;;;;5108339;28;20047;-36
2021/09/28 05:33:34;;;;;;;3.88;2.97;;;21.60;68.70;;;;;;5126939;28;20042;-36
2021/09/28 05:36:00;;;;;;;2.40;2.20;;;21.60;68.70;;;;;;5126939;28;20103;-37
2021/09/28 05:38:26;;;;;;;2.88;2.67;;;21.60;68.70;;;;;;5126933;28;20042;-37
2021/09/28 05:40:52;;;;;;;2.60;2.40;;;21.60;68.80;;;;;;5108395;28;20027;-36
2021/09/28 05:43:19;;;;;;;2.85;2.55;;;21.60;68.80;;;;;;5126643;28;20032;-36
2021/09/28 05:45:45;;;;;;;2.58;2.38;;;21.60;68.80;;;;;;5126725;28;20024;-36
2021/09/28 05:48:11;;;;;;;2.78;2.50;;;21.60;68.90;;;;;;5126641;28;20039;-36
2021/09/28 05:50:38;;;;;;;2.65;2.45;;;21.50;68.90;;;;;;5126815;28;20112;-36
2021/09/28 05:53:08;;;;;;;2.72;2.45;;;21.50;68.90;;;;;;5126258;28;20575;-37
2021/09/28 05:55:35;;;;;;;2.30;2.13;;;21.50;68.90;;;;;;5126147;28;20062;-37
2021/09/28 05:58:01;;;;;;;2.53;2.33;;;21.50;69.00;;;;;;5108327;28;20053;-37
2021/09/28 06:00:27;;;;;;;2.78;2.58;;;21.50;69.00;;;;;;5123485;28;20028;-36
2021/09/28 06:02:53;;;;;;;2.78;2.30;;;21.50;69.00;;;;;;5105769;28;20040;-36
2021/09/28 06:05:23;;;;;;;2.92;2.63;;;21.50;69.10;;;;;;5106017;28;20074;-37
2021/09/28 06:07:49;;;;;;;2.72;2.53;;;21.50;69.10;;;;;;5105914;28;20023;-36
2021/09/28 06:10:15;;;;;;;3.80;2.80;;;21.50;69.20;;;;;;5106041;28;20034;-36
2021/09/28 06:12:42;;;;;;;2.65;2.45;;;21.40;69.10;;;;;;5112825;28;20039;-36
2021/09/28 06:15:08;;;;;;;3.17;2.28;;;21.40;69.10;;;;;;5105872;28;20039;-36
2021/09/28 06:17:34;;;;;;;2.65;2.45;;;21.40;69.20;;;;;;5105960;28;20506;-37
2021/09/28 06:20:01;;;;;;;2.58;2.38;;;21.40;69.20;;;;;;5105844;28;20055;-37
2021/09/28 06:22:27;;;;;;;2.85;2.42;;;21.40;69.30;;;;;;5108071;28;20087;-36
2021/09/28 06:24:56;;;;;;;2.70;2.50;;;21.40;69.30;;;;;;5125654;28;20073;-38
2021/09/28 06:27:23;;;;;;;2.70;2.50;;;21.40;69.30;;;;;;5125007;28;20023;-36
2021/09/28 06:29:49;;;;;;;2.92;2.58;;;21.40;69.40;;;;;;5125811;28;20034;-36
2021/09/28 06:32:18;;;;;;;2.50;2.30;;;21.40;69.30;;;;;;5125887;28;20088;-37
2021/09/28 06:34:44;;;;;;;2.63;2.42;;;21.40;69.40;;;;;;5125984;28;20020;-36
2021/09/28 06:37:11;;;;;;;2.47;2.28;;;21.30;69.40;;;;;;5107374;28;20029;-36
2021/09/28 06:39:37;;;;;;;2.80;2.60;;;21.30;69.40;;;;;;5125557;28;20023;-36
2021/09/28 06:42:03;;;;;;;3.05;2.50;;;21.30;69.40;;;;;;5122325;28;20039;-37
2021/09/28 06:44:30;;;;;;;2.88;2.55;;;21.30;69.40;;;;;;5125530;28;20024;-37
2021/09/28 06:46:56;;;;;;;2.60;2.40;;;21.30;69.50;;;;;;5125984;28;20035;-36
2021/09/28 06:49:22;;;;;;;2.90;2.70;;;21.30;70.30;;;;;;5125666;28;20028;-36
2021/09/28 06:51:48;;;;;;;2.65;2.30;;;21.20;69.50;;;;;;5125229;28;20027;-40
2021/09/28 06:54:14;;;;;;;2.80;2.60;;;21.30;69.60;;;;;;5124926;28;20061;-37
2021/09/28 06:56:44;;;;;;;2.70;2.47;;;21.20;69.50;;;;;;5125334;28;20039;-37
2021/09/28 06:59:10;;;;;;;3.33;2.40;;;21.20;69.60;;;;;;5125628;28;20027;-36
2021/09/28 07:01:39;;;;;;;3.10;2.80;;;21.20;69.60;;;;;;5125395;28;20047;-36
2021/09/28 07:04:06;;;;;;;2.33;2.13;;;21.20;69.70;;;;;;5124950;28;20039;-36
2021/09/28 07:06:32;;;;;;;3.33;2.67;;;21.20;69.70;;;;;;5125315;28;20139;-36
2021/09/28 07:08:58;;;;;;;3.20;2.72;;;21.20;69.70;;;;;;5124840;28;20344;-37
2021/09/28 07:11:25;;;;;;;3.08;2.78;;;21.20;69.80;;;;;;5119443;28;20070;-37
2021/09/28 07:13:51;;;;;;;2.50;2.30;;;21.20;69.80;;;;;;5104457;28;20036;-36
2021/09/28 07:16:17;;;;;;;2.97;2.58;;;21.20;69.80;;;;;;5104512;28;20024;-36
2021/09/28 07:18:43;;;;;;;3.05;2.65;;;21.10;69.80;;;;;;5104702;28;20095;-36
2021/09/28 07:21:10;;;;;;;3.25;3.00;;;21.10;69.80;;;;;;5104565;28;20035;-36
2021/09/28 07:23:37;;;;;;;2.92;2.70;;;21.10;69.80;;;;;;5097900;28;20036;-37
2021/09/28 07:26:03;;;;;;;2.50;2.30;;;21.10;69.90;;;;;;5124879;28;20028;-36
2021/09/28 07:28:30;;;;;;;2.72;2.53;;;21.10;69.90;;;;;;5124707;28;20023;-45
2021/09/28 07:30:56;;;;;;;2.60;2.40;;;21.10;69.90;;;;;;5124484;28;20248;-36
2021/09/28 07:33:22;;;;;;;4.05;2.75;;;21.10;69.90;;;;;;5124730;28;20027;-36
2021/09/28 07:35:48;;;;;;;2.42;2.22;;;21.00;69.90;;;;;;5124549;28;20407;-37
2021/09/28 07:38:16;;;;;;;3.00;2.80;;;21.10;70.00;;;;;;5124308;28;20052;-36
2021/09/28 07:40:43;;;;;;;2.95;2.42;;;21.00;69.90;;;;;;5124615;28;20032;-36
2021/09/28 07:43:09;;;;;;;2.75;2.55;;;21.00;70.00;;;;;;5123997;28;20043;-37
2021/09/28 07:45:36;;;;;;;2.93;2.63;;;21.00;70.00;;;;;;5124532;28;20028;-36
2021/09/28 07:48:02;;;;;;;3.35;3.05;;;21.00;70.10;;;;;;5124432;28;20053;-36
2021/09/28 07:50:28;;;;;;;4.00;2.53;;;21.00;70.10;;;;;;5124474;28;20051;-36
2021/09/28 07:52:54;;;;;;;2.90;2.70;;;21.00;70.10;;;;;;5123969;28;20119;-36
2021/09/28 07:55:21;;;;;;;2.70;2.50;;;21.00;70.10;;;;;;5123827;28;20035;-36
2021/09/28 07:57:47;;;;;;;2.90;2.70;;;21.00;70.20;;;;;;5124633;28;20044;-36
2021/09/28 08:00:13;;;;;;;2.58;2.38;;;21.00;70.20;;;;;;5124173;28;20499;-36
2021/09/28 08:02:40;;;;;;;3.10;2.80;;;21.00;70.20;;;;;;5124149;28;20039;-36
2021/09/28 08:05:06;;;;;;;2.83;2.60;;;21.00;70.30;;;;;;5123957;28;20034;-37
2021/09/28 08:07:33;;;;;;;3.08;2.80;;;21.00;70.30;;;;;;5124071;28;20066;-36
2021/09/28 08:09:59;;;;;;;2.42;2.30;;;21.00;70.30;;;;;;5105690;28;20118;-37
2021/09/28 08:12:25;;;;;;;3.13;2.83;;;20.90;70.20;;;;;;5123658;28;20033;-37
2021/09/28 08:14:53;;;;;;;2.87;2.67;;;20.90;70.30;;;;;;5123779;28;20062;-36
2021/09/28 08:17:20;;;;;;;3.28;2.60;;;20.90;70.30;;;;;;5123875;28;20028;-36
2021/09/28 08:19:49;;;;;;;3.40;2.88;;;20.90;70.30;;;;;;5123746;28;20560;-36
2021/09/28 08:22:15;;;;;;;2.65;2.30;;;20.90;70.30;;;;;;5115957;28;20040;-36
2021/09/28 08:24:42;;;;;;;2.97;2.70;;;20.90;70.40;;;;;;5123364;28;20032;-37
2021/09/28 08:29:54;;;;;;;2.72;2.53;;;20.90;70.40;;;;;;5123706;28;20151;-36
2021/09/28 08:32:20;;;;;;;2.60;2.40;;;20.80;70.40;;;;;;5123658;28;20027;-36
2021/09/28 08:34:47;;;;;;;2.88;2.67;;;20.80;70.50;;;;;;5123466;28;20032;-36
2021/09/28 08:37:14;;;;;;;2.78;2.58;;;20.80;70.40;;;;;;5123651;28;20031;-36
2021/09/28 08:39:40;;;;;;;3.22;2.55;;;20.80;70.40;;;;;;5123403;28;20113;-37
2021/09/28 08:42:06;;;;;;;3.10;2.63;;;20.80;70.50;;;;;;5123318;28;20043;-36
2021/09/28 08:44:33;;;;;;;3.00;2.80;;;20.80;70.50;;;;;;5123357;28;20031;-36
2021/09/28 08:46:59;;;;;;;2.78;2.58;;;20.80;71.30;;;;;;5105210;28;20038;-36
2021/09/28 08:49:25;;;;;;;3.10;2.80;;;20.80;70.60;;;;;;5104508;28;20062;-36
2021/09/28 08:51:54;;;;;;;3.47;2.80;;;20.80;70.60;;;;;;5122593;28;20031;-37
2021/09/28 08:54:20;;;;;;;3.10;2.80;;;20.70;70.60;;;;;;5104381;28;20027;-36
2021/09/28 08:56:47;;;;;;;3.13;2.75;;;20.70;70.60;;;;;;5123225;28;20093;-36
2021/09/28 08:59:18;;;;;;;2.63;2.42;;;20.70;70.60;;;;;;5123134;28;20053;-36
2021/09/28 09:02:00;;;;;;;3.05;2.80;;;20.70;70.70;;;;;;5123213;28;20035;-36
2021/09/28 09:04:26;;;;;;;2.53;2.33;;;20.70;70.70;;;;;;5122952;28;20598;-36
2021/09/28 09:06:54;;;;;;;2.85;2.65;;;20.70;70.70;;;;;;5123384;28;20028;-37
2021/09/28 09:09:21;;;;;;;2.75;2.55;;;20.70;70.70;;;;;;5122993;28;20028;-36
2021/09/28 09:11:48;;;;;;;2.80;2.60;;;20.70;70.80;;;;;;5123004;28;20101;-36
2021/09/28 09:14:18;;;;;;;2.63;2.42;;;20.70;70.90;;;;;;5122857;28;20434;-36
2021/09/28 09:16:45;;;;;;;3.05;2.75;;;20.70;70.90;;;;;;5123000;28;20027;-37
2021/09/28 09:19:17;;;;;;;2.80;2.60;;;20.70;70.90;;;;;;5122991;28;20050;-36
2021/09/28 09:21:56;;;;;;;2.60;2.40;;;20.60;70.80;;;;;;5123096;28;20046;-36
2021/09/28 09:24:46;;;;;;;3.03;2.65;;;20.60;70.80;;;;;;5122514;28;20034;-37
2021/09/28 09:27:30;;;;;;;2.60;2.40;;;20.60;70.80;;;;;;5122891;28;20038;-36
2021/09/28 09:30:18;;;;;;;3.10;2.80;;;20.60;70.90;;;;;;5106809;28;20421;-36
2021/09/28 09:32:55;;;;;;;2.80;2.60;;;20.60;70.90;;;;;;5121088;28;20032;-36
2021/09/28 09:35:29;;;;;;;3.05;2.85;;;20.60;70.90;;;;;;5122673;28;20023;-36
2021/09/28 09:38:12;;;;;;;3.20;2.90;;;20.60;71.00;;;;;;5122789;28;20028;-36
2021/09/28 09:40:40;;;;;;;3.00;2.80;;;20.60;71.00;;;;;;5122721;28;20028;-36
2021/09/28 09:43:07;;;;;;;2.92;2.70;;;20.60;71.00;;;;;;5122574;28;20035;-36
2021/09/28 09:45:33;;;;;;;2.78;2.58;;;20.60;71.10;;;;;;5122566;28;20028;-36
2021/09/28 09:47:59;;;;;;;3.10;2.58;;;20.50;71.00;;;;;;5122643;28;20032;-36
2021/09/28 09:50:30;;;;;;;4.05;3.03;;;20.50;71.10;;;;;;5104604;28;20424;-36
2021/09/28 09:53:04;;;;;;;3.20;2.90;;;20.50;71.80;;;;;;5122542;28;20139;-36
2021/09/28 09:55:32;;;;;;;3.00;2.80;;;20.50;71.10;;;;;;5122058;28;20031;-36
2021/09/28 09:57:58;;;;;;;;;;;20.50;71.10;;;;;;5123236;28;20040;-36
2021/09/28 10:00:24;;;;;;;3.20;2.90;;;20.50;71.10;;;;;;5122613;28;19939;-36
2021/09/28 10:02:51;;;;;;;3.63;2.77;;;20.50;71.10;;;;;;5125724;28;20042;-36
2021/09/28 10:05:17;;;;;;;4.23;2.53;;;20.50;71.10;;;;;;5126286;28;20051;-37
2021/09/28 10:07:43;;;;;;;3.17;2.87;;;20.50;71.10;;;;;;5126386;28;20035;-36
2021/09/28 10:10:14;;;;;;;4.63;3.00;;;20.40;71.10;;;;;;5107861;28;20496;-36
2021/09/28 10:12:40;;;;;;;2.92;2.40;;;20.40;71.10;;;;;;5126019;28;20040;-36
2021/09/28 10:15:14;;;;;;;2.92;2.63;;;20.40;71.20;;;;;;5125650;28;20035;-36
2021/09/28 10:17:41;;;;;;;3.22;2.92;;;20.40;71.20;;;;;;5126041;28;20036;-36
2021/09/28 10:20:29;;;;;;;3.20;2.95;;;20.40;71.30;;;;;;5118355;28;20063;-37
2021/09/28 10:22:58;;;;;;;2.97;2.78;;;20.40;71.30;;;;;;5125841;28;20047;-36
2021/09/28 10:25:33;;;;;;;2.90;2.65;;;20.40;71.40;;;;;;5125759;28;20032;-36
2021/09/28 10:28:05;;;;;;;3.20;2.90;;;20.40;71.30;;;;;;5125836;28;20063;-36
2021/09/28 10:30:34;;;;;;;2.80;2.60;;;20.40;71.40;;;;;;5125840;28;20032;-36
2021/09/28 10:33:05;;;;;;;3.10;2.80;;;20.40;71.40;;;;;;5125887;28;20052;-36
2021/09/28 10:35:34;;;;;;;2.88;2.67;;;20.40;71.50;;;;;;5125329;28;20066;-37
2021/09/28 10:38:01;;;;;;;3.92;2.90;;;20.40;71.50;;;;;;5125710;28;20026;-36
2021/09/28 10:40:31;;;;;;;3.75;2.80;;;20.40;71.50;;;;;;5125482;28;20027;-36
2021/09/28 10:43:02;;;;;;;2.95;2.75;;;20.30;71.50;;;;;;5124995;28;20134;-36
2021/09/28 10:45:28;;;;;;;4.00;2.40;;;20.30;71.50;;;;;;5125251;28;20020;-36
2021/09/28 10:47:58;;;;;;;2.97;2.78;;;20.30;71.50;;;;;;5125443;28;20492;-36
2021/09/28 10:50:31;;;;;;;2.70;2.50;;;20.30;71.80;;;;;;5125370;28;20032;-36
2021/09/28 10:53:02;;;;;;;3.28;2.70;;;20.30;71.50;;;;;;5125329;28;20071;-36
2021/09/28 10:55:41;;;;;;;3.15;2.90;;;20.30;71.50;;;;;;5121412;28;20031;-37
2021/09/28 10:58:14;;;;;;;2.80;2.60;;;20.30;71.60;;;;;;5107434;28;20491;-36
2021/09/28 11:00:40;;;;;;;2.92;2.67;;;20.30;71.60;;;;;;5125236;28;20031;-36
2021/09/28 11:03:10;;;;;;;3.00;2.70;;;20.30;71.60;;;;;;5125105;28;20057;-36
2021/09/28 11:05:39;;;;;;;2.80;2.60;;;20.20;71.60;;;;;;5124943;28;20028;-36
2021/09/28 11:08:12;;;;;;;3.17;2.88;;;20.20;71.60;;;;;;5125230;28;20434;-36
2021/09/28 11:10:39;;;;;;;2.65;2.45;;;20.30;71.70;;;;;;5124897;28;20036;-36
2021/09/28 11:13:07;;;;;;;3.30;3.03;;;20.20;71.70;;;;;;5124466;28;20027;-36
2021/09/28 11:15:33;;;;;;;3.22;2.92;;;20.20;71.80;;;;;;5124602;28;20048;-37
2021/09/28 11:18:09;;;;;;;3.05;2.85;;;20.20;71.80;;;;;;5125082;28;20032;-36
2021/09/28 11:20:36;;;;;;;3.42;3.05;;;20.20;72.50;;;;;;5124593;28;20028;-36
2021/09/28 11:23:07;;;;;;;3.80;2.95;;;20.20;71.80;;;;;;5125004;28;20027;-36
2021/09/28 11:25:34;;;;;;;2.83;2.63;;;20.20;71.80;;;;;;5124519;28;20028;-41
2021/09/28 11:28:14;;;;;;;2.90;2.70;;;20.20;71.90;;;;;;5124750;28;20027;-36
2021/09/28 11:30:50;;;;;;;2.80;2.60;;;20.20;71.90;;;;;;5124692;28;20035;-36
2021/09/28 11:33:16;;;;;;;4.00;3.00;;;20.10;71.80;;;;;;5124106;28;20032;-37
2021/09/28 11:35:57;;;;;;;3.28;2.70;;;20.10;71.80;;;;;;5124400;28;20066;-37
2021/09/28 11:38:33;;;;;;;3.20;2.90;;;20.10;71.80;;;;;;5108211;28;20115;-36
2021/09/28 11:41:00;;;;;;;3.30;2.95;;;20.10;71.80;;;;;;5124180;28;20108;-36
2021/09/28 11:43:28;;;;;;;;;;;20.10;71.90;;;;;;5124648;28;20042;-36
2021/09/28 11:45:58;;;;;;;3.13;2.83;;;20.10;71.90;;;;;;5124248;28;19908;-37
2021/09/28 11:48:26;;;;;;;3.13;2.83;;;20.10;72.00;;;;;;5124326;28;20027;-36
2021/09/28 11:50:51;;;;;;;;;;;20.10;72.00;;;;;;5106440;28;20041;-37
2021/09/28 11:53:18;;;;;;;3.20;2.90;;;20.10;72.00;;;;;;5124118;28;19919;-36
2021/09/28 11:55:44;;;;;;;3.15;2.85;;;20.10;72.10;;;;;;5123864;28;20041;-36
2021/09/28 11:58:10;;;;;;;3.72;3.00;;;20.10;72.10;;;;;;5124100;28;20444;-36
2021/09/28 12:00:36;;;;;;;2.80;2.60;;;20.10;72.20;;;;;;5124062;28;20028;-37
2021/09/28 12:03:05;;;;;;;3.47;2.90;;;20.00;72.00;;;;;;5123945;28;20075;-37
2021/09/28 12:08:28;;;;;;;3.20;2.85;;;20.00;72.10;;;;;;5123756;28;20057;-36
2021/09/28 12:11:00;;;;;;;3.10;2.80;;;20.00;72.10;;;;;;5123511;28;20034;-36
2021/09/28 12:13:27;;;;;;;3.22;2.92;;;20.00;72.10;;;;;;5106484;28;20364;-36
2021/09/28 12:16:03;;;;;;;3.38;3.08;;;20.00;72.20;;;;;;5110363;28;20031;-38
2021/09/28 12:18:30;;;;;;;3.60;2.80;;;20.00;72.10;;;;;;5103334;28;20032;-36
2021/09/28 12:21:12;;;;;;;3.60;3.30;;;20.00;72.20;;;;;;5112479;28;20027;-37
2021/09/28 12:23:38;;;;;;;4.05;2.63;;;20.00;72.20;;;;;;5123171;28;20299;-36
2021/09/28 12:26:05;;;;;;;3.25;2.83;;;20.00;72.20;;;;;;5123381;28;20027;-36
2021/09/28 12:28:40;;;;;;;3.40;3.10;;;19.90;72.90;;;;;;5123287;28;20028;-37
2021/09/28 12:31:08;;;;;;;2.85;2.53;;;20.00;72.20;;;;;;5123692;28;20028;-36
2021/09/28 12:33:34;;;;;;;2.78;2.58;;;19.90;72.20;;;;;;5112052;28;20032;-37
2021/09/28 12:36:01;;;;;;;3.33;3.03;;;19.90;72.20;;;;;;5103195;28;20020;-36
2021/09/28 12:38:27;;;;;;;3.10;2.80;;;19.90;72.30;;;;;;5102823;28;20039;-36
2021/09/28 12:41:06;;;;;;;3.57;2.67;;;19.90;72.30;;;;;;5102862;28;20252;-36
2021/09/28 12:43:34;;;;;;;2.95;2.70;;;19.90;72.30;;;;;;5103032;28;20702;-36
2021/09/28 12:46:03;;;;;;;3.47;2.88;;;19.90;72.30;;;;;;5102725;28;20036;-36
2021/09/28 12:48:39;;;;;;;2.80;2.50;;;19.90;72.30;;;;;;5102635;28;20108;-37
2021/09/28 12:51:07;;;;;;;2.90;2.70;;;19.90;72.30;;;;;;5114742;28;20027;-36
2021/09/28 12:53:33;;;;;;;3.30;2.70;;;19.90;72.30;;;;;;5107221;28;20076;-36
2021/09/28 12:55:59;;;;;;;3.30;3.00;;;19.90;72.30;;;;;;5102625;28;20043;-36